sensor_id;sensor_type;location;lat;lon;timestamp;temperature;humidity
27266;DHT22;14766;51.380;13.762;2022-11-15T00:01:48;11.90;67.40
27266;DHT22;14766;51.380;13.762;2022-11-15T00:04:34;11.90;67.70
27266;DHT22;14766;51.380;13.762;2022-11-15T00:07:20;11.90;67.80
27266;DHT22;14766;51.380;13.762;2022-11-15T00:10:26;11.90;67.70
27266;DHT22;14766;51.380;13.762;2022-11-15T00:13:12;11.90;67.70
27266;DHT22;14766;51.380;13.762;2022-11-15T00:16:00;11.90;67.80
27266;DHT22;14766;51.380;13.762;2022-11-15T00:18:47;11.90;67.80
27266;DHT22;14766;51.380;13.762;2022-11-15T00:21:35;11.80;67.80
27266;DHT22;14766;51.380;13.762;2022-11-15T00:24:21;11.80;67.90
27266;DHT22;14766;51.380;13.762;2022-11-15T00:27:07;11.80;68.10
27266;DHT22;14766;51.380;13.762;2022-11-15T00:29:52;11.80;68.10
27266;DHT22;14766;51.380;13.762;2022-11-15T00:32:38;11.80;68.10
27266;DHT22;14766;51.380;13.762;2022-11-15T00:35:24;11.80;68.20
27266;DHT22;14766;51.380;13.762;2022-11-15T00:38:09;11.80;68.30
27266;DHT22;14766;51.380;13.762;2022-11-15T00:40:55;11.80;68.10
27266;DHT22;14766;51.380;13.762;2022-11-15T00:43:41;11.70;68.30
27266;DHT22;14766;51.380;13.762;2022-11-15T00:46:29;11.70;68.60
27266;DHT22;14766;51.380;13.762;2022-11-15T00:49:15;11.80;68.40
27266;DHT22;14766;51.380;13.762;2022-11-15T00:52:01;11.70;68.40
27266;DHT22;14766;51.380;13.762;2022-11-15T00:54:47;11.70;68.50
27266;DHT22;14766;51.380;13.762;2022-11-15T00:57:32;11.70;68.70
27266;DHT22;14766;51.380;13.762;2022-11-15T01:00:18;11.70;68.50
27266;DHT22;14766;51.380;13.762;2022-11-15T01:03:04;11.70;68.50
27266;DHT22;14766;51.380;13.762;2022-11-15T01:05:50;11.70;68.50
27266;DHT22;14766;51.380;13.762;2022-11-15T01:08:36;11.70;68.60
27266;DHT22;14766;51.380;13.762;2022-11-15T01:11:21;11.70;68.70
27266;DHT22;14766;51.380;13.762;2022-11-15T01:14:07;11.70;68.60
27266;DHT22;14766;51.380;13.762;2022-11-15T01:16:52;11.70;68.70
27266;DHT22;14766;51.380;13.762;2022-11-15T01:19:38;11.60;68.60
27266;DHT22;14766;51.380;13.762;2022-11-15T01:22:24;11.70;68.50
27266;DHT22;14766;51.380;13.762;2022-11-15T01:25:10;11.60;68.40
27266;DHT22;14766;51.380;13.762;2022-11-15T01:27:56;11.60;68.60
27266;DHT22;14766;51.380;13.762;2022-11-15T01:30:41;11.60;68.70
27266;DHT22;14766;51.380;13.762;2022-11-15T01:33:28;11.60;68.40
27266;DHT22;14766;51.380;13.762;2022-11-15T01:36:19;11.60;68.50
27266;DHT22;14766;51.380;13.762;2022-11-15T01:39:08;11.60;68.60
27266;DHT22;14766;51.380;13.762;2022-11-15T01:41:55;11.60;68.70
27266;DHT22;14766;51.380;13.762;2022-11-15T01:44:42;11.60;68.80
27266;DHT22;14766;51.380;13.762;2022-11-15T01:47:36;11.60;68.80
27266;DHT22;14766;51.380;13.762;2022-11-15T01:50:29;11.60;69.00
27266;DHT22;14766;51.380;13.762;2022-11-15T01:53:17;11.60;68.80
27266;DHT22;14766;51.380;13.762;2022-11-15T01:56:07;11.60;68.80
27266;DHT22;14766;51.380;13.762;2022-11-15T01:58:57;11.60;68.90
27266;DHT22;14766;51.380;13.762;2022-11-15T02:01:43;11.60;69.10
27266;DHT22;14766;51.380;13.762;2022-11-15T02:04:45;11.60;69.00
27266;DHT22;14766;51.380;13.762;2022-11-15T02:07:31;11.60;68.90
27266;DHT22;14766;51.380;13.762;2022-11-15T02:10:20;11.60;68.90
27266;DHT22;14766;51.380;13.762;2022-11-15T02:13:06;11.60;69.00
27266;DHT22;14766;51.380;13.762;2022-11-15T02:16:03;11.60;69.00
27266;DHT22;14766;51.380;13.762;2022-11-15T02:19:16;11.60;69.00
27266;DHT22;14766;51.380;13.762;2022-11-15T02:25:40;11.60;69.00
27266;DHT22;14766;51.380;13.762;2022-11-15T02:35:00;11.60;69.40
27266;DHT22;14766;51.380;13.762;2022-11-15T02:41:09;11.50;69.40
27266;DHT22;14766;51.380;13.762;2022-11-15T02:44:02;11.50;69.30
27266;DHT22;14766;51.380;13.762;2022-11-15T02:47:00;11.50;69.50
27266;DHT22;14766;51.380;13.762;2022-11-15T02:50:03;11.50;69.70
27266;DHT22;14766;51.380;13.762;2022-11-15T02:52:53;11.50;69.50
27266;DHT22;14766;51.380;13.762;2022-11-15T02:55:41;11.50;69.50
27266;DHT22;14766;51.380;13.762;2022-11-15T03:01:38;11.50;69.50
27266;DHT22;14766;51.380;13.762;2022-11-15T03:04:33;11.50;69.70
27266;DHT22;14766;51.380;13.762;2022-11-15T03:07:27;11.40;69.70
27266;DHT22;14766;51.380;13.762;2022-11-15T03:10:24;11.40;69.70
27266;DHT22;14766;51.380;13.762;2022-11-15T03:16:12;11.40;69.70
27266;DHT22;14766;51.380;13.762;2022-11-15T03:19:13;11.30;69.70
27266;DHT22;14766;51.380;13.762;2022-11-15T03:22:02;11.40;69.80
27266;DHT22;14766;51.380;13.762;2022-11-15T03:24:52;11.30;69.80
27266;DHT22;14766;51.380;13.762;2022-11-15T03:27:43;11.30;70.60
27266;DHT22;14766;51.380;13.762;2022-11-15T03:30:33;11.30;69.80
27266;DHT22;14766;51.380;13.762;2022-11-15T03:33:21;11.30;69.80
27266;DHT22;14766;51.380;13.762;2022-11-15T03:36:07;11.30;69.80
27266;DHT22;14766;51.380;13.762;2022-11-15T03:38:56;11.30;70.00
27266;DHT22;14766;51.380;13.762;2022-11-15T03:47:39;11.30;70.00
27266;DHT22;14766;51.380;13.762;2022-11-15T03:50:26;11.30;69.90
27266;DHT22;14766;51.380;13.762;2022-11-15T03:53:13;11.30;69.90
27266;DHT22;14766;51.380;13.762;2022-11-15T03:55:59;11.30;69.90
27266;DHT22;14766;51.380;13.762;2022-11-15T03:58:45;11.30;70.00
27266;DHT22;14766;51.380;13.762;2022-11-15T04:01:31;11.30;69.90
27266;DHT22;14766;51.380;13.762;2022-11-15T04:04:16;11.30;69.90
27266;DHT22;14766;51.380;13.762;2022-11-15T04:07:02;11.30;69.90
27266;DHT22;14766;51.380;13.762;2022-11-15T04:09:51;11.30;69.80
27266;DHT22;14766;51.380;13.762;2022-11-15T04:12:49;11.30;69.80
27266;DHT22;14766;51.380;13.762;2022-11-15T04:15:35;11.30;69.90
27266;DHT22;14766;51.380;13.762;2022-11-15T04:18:21;11.30;69.80
27266;DHT22;14766;51.380;13.762;2022-11-15T04:21:08;11.30;70.20
27266;DHT22;14766;51.380;13.762;2022-11-15T04:24:12;11.30;69.90
27266;DHT22;14766;51.380;13.762;2022-11-15T04:26:58;11.30;69.70
27266;DHT22;14766;51.380;13.762;2022-11-15T04:29:43;11.30;69.60
27266;DHT22;14766;51.380;13.762;2022-11-15T04:32:29;11.30;69.70
27266;DHT22;14766;51.380;13.762;2022-11-15T04:35:15;11.30;69.80
27266;DHT22;14766;51.380;13.762;2022-11-15T04:38:01;11.30;69.60
27266;DHT22;14766;51.380;13.762;2022-11-15T04:40:48;11.30;69.70
27266;DHT22;14766;51.380;13.762;2022-11-15T04:43:33;11.30;69.60
27266;DHT22;14766;51.380;13.762;2022-11-15T04:46:19;11.30;69.60
27266;DHT22;14766;51.380;13.762;2022-11-15T04:49:05;11.30;69.40
27266;DHT22;14766;51.380;13.762;2022-11-15T04:51:51;11.30;69.20
27266;DHT22;14766;51.380;13.762;2022-11-15T04:54:37;11.30;69.10
27266;DHT22;14766;51.380;13.762;2022-11-15T04:57:23;11.30;69.00
27266;DHT22;14766;51.380;13.762;2022-11-15T05:00:15;11.30;68.90
27266;DHT22;14766;51.380;13.762;2022-11-15T05:03:01;11.30;68.70
27266;DHT22;14766;51.380;13.762;2022-11-15T05:06:06;11.30;68.60
27266;DHT22;14766;51.380;13.762;2022-11-15T05:08:52;11.40;69.40
27266;DHT22;14766;51.380;13.762;2022-11-15T05:11:38;11.40;68.40
27266;DHT22;14766;51.380;13.762;2022-11-15T05:14:24;11.40;68.40
27266;DHT22;14766;51.380;13.762;2022-11-15T05:17:11;11.40;68.30
27266;DHT22;14766;51.380;13.762;2022-11-15T05:19:57;11.40;68.20
27266;DHT22;14766;51.380;13.762;2022-11-15T05:22:43;11.40;68.10
27266;DHT22;14766;51.380;13.762;2022-11-15T05:25:29;11.30;68.00
27266;DHT22;14766;51.380;13.762;2022-11-15T05:28:16;11.40;68.00
27266;DHT22;14766;51.380;13.762;2022-11-15T05:31:10;11.40;67.90
27266;DHT22;14766;51.380;13.762;2022-11-15T05:33:56;11.30;67.90
27266;DHT22;14766;51.380;13.762;2022-11-15T05:36:44;11.30;67.70
27266;DHT22;14766;51.380;13.762;2022-11-15T05:39:31;11.30;67.50
27266;DHT22;14766;51.380;13.762;2022-11-15T05:42:16;11.30;67.40
27266;DHT22;14766;51.380;13.762;2022-11-15T05:45:06;11.30;67.10
27266;DHT22;14766;51.380;13.762;2022-11-15T05:47:52;11.30;67.00
27266;DHT22;14766;51.380;13.762;2022-11-15T05:50:43;11.20;66.80
27266;DHT22;14766;51.380;13.762;2022-11-15T05:53:30;11.20;66.70
27266;DHT22;14766;51.380;13.762;2022-11-15T05:56:16;11.20;66.70
27266;DHT22;14766;51.380;13.762;2022-11-15T05:59:02;11.10;66.70
27266;DHT22;14766;51.380;13.762;2022-11-15T06:01:48;11.10;67.00
27266;DHT22;14766;51.380;13.762;2022-11-15T06:04:34;11.10;67.50
27266;DHT22;14766;51.380;13.762;2022-11-15T06:07:20;11.10;67.90
27266;DHT22;14766;51.380;13.762;2022-11-15T06:10:06;11.10;67.70
27266;DHT22;14766;51.380;13.762;2022-11-15T06:12:59;11.10;68.10
27266;DHT22;14766;51.380;13.762;2022-11-15T06:15:45;11.10;68.20
27266;DHT22;14766;51.380;13.762;2022-11-15T06:18:34;11.10;68.20
27266;DHT22;14766;51.380;13.762;2022-11-15T06:21:21;11.10;68.20
27266;DHT22;14766;51.380;13.762;2022-11-15T06:24:08;11.10;68.10
27266;DHT22;14766;51.380;13.762;2022-11-15T06:26:53;11.10;68.10
27266;DHT22;14766;51.380;13.762;2022-11-15T06:29:40;11.10;68.10
27266;DHT22;14766;51.380;13.762;2022-11-15T06:32:25;11.10;68.10
27266;DHT22;14766;51.380;13.762;2022-11-15T06:35:11;11.10;68.00
27266;DHT22;14766;51.380;13.762;2022-11-15T06:38:02;11.20;68.10
27266;DHT22;14766;51.380;13.762;2022-11-15T06:40:48;11.20;68.20
27266;DHT22;14766;51.380;13.762;2022-11-15T06:43:35;11.20;68.30
27266;DHT22;14766;51.380;13.762;2022-11-15T06:46:21;11.20;68.20
27266;DHT22;14766;51.380;13.762;2022-11-15T06:49:06;11.20;68.30
27266;DHT22;14766;51.380;13.762;2022-11-15T06:51:54;11.30;68.60
27266;DHT22;14766;51.380;13.762;2022-11-15T06:54:40;11.30;68.60
27266;DHT22;14766;51.380;13.762;2022-11-15T06:57:25;11.30;68.50
27266;DHT22;14766;51.380;13.762;2022-11-15T07:00:12;11.30;68.60
27266;DHT22;14766;51.380;13.762;2022-11-15T07:03:00;11.30;68.80
27266;DHT22;14766;51.380;13.762;2022-11-15T07:05:56;11.30;68.90
27266;DHT22;14766;51.380;13.762;2022-11-15T07:08:50;11.40;68.90
27266;DHT22;14766;51.380;13.762;2022-11-15T07:11:36;11.40;69.10
27266;DHT22;14766;51.380;13.762;2022-11-15T07:14:22;11.40;69.00
27266;DHT22;14766;51.380;13.762;2022-11-15T07:17:07;11.50;69.30
27266;DHT22;14766;51.380;13.762;2022-11-15T07:19:53;11.60;69.60
27266;DHT22;14766;51.380;13.762;2022-11-15T07:22:39;11.70;70.00
27266;DHT22;14766;51.380;13.762;2022-11-15T07:25:25;11.90;71.30
27266;DHT22;14766;51.380;13.762;2022-11-15T07:28:12;12.10;70.80
27266;DHT22;14766;51.380;13.762;2022-11-15T07:31:01;12.50;71.40
27266;DHT22;14766;51.380;13.762;2022-11-15T07:33:47;12.90;71.80
27266;DHT22;14766;51.380;13.762;2022-11-15T07:36:32;13.40;71.30
27266;DHT22;14766;51.380;13.762;2022-11-15T07:39:18;13.90;68.70
27266;DHT22;14766;51.380;13.762;2022-11-15T07:42:04;14.40;66.80
27266;DHT22;14766;51.380;13.762;2022-11-15T07:45:09;14.80;65.40
27266;DHT22;14766;51.380;13.762;2022-11-15T07:47:56;15.30;64.00
27266;DHT22;14766;51.380;13.762;2022-11-15T07:50:43;15.70;63.30
27266;DHT22;14766;51.380;13.762;2022-11-15T07:53:28;16.10;63.00
27266;DHT22;14766;51.380;13.762;2022-11-15T07:56:14;16.40;59.90
27266;DHT22;14766;51.380;13.762;2022-11-15T07:59:00;16.80;57.50
27266;DHT22;14766;51.380;13.762;2022-11-15T08:01:46;17.10;59.00
27266;DHT22;14766;51.380;13.762;2022-11-15T08:04:32;17.40;57.90
27266;DHT22;14766;51.380;13.762;2022-11-15T08:07:19;17.70;57.70
27266;DHT22;14766;51.380;13.762;2022-11-15T08:10:06;18.00;56.50
27266;DHT22;14766;51.380;13.762;2022-11-15T08:13:07;18.30;56.10
27266;DHT22;14766;51.380;13.762;2022-11-15T08:15:58;18.60;56.00
27266;DHT22;14766;51.380;13.762;2022-11-15T08:18:45;18.90;55.60
27266;DHT22;14766;51.380;13.762;2022-11-15T08:21:31;19.20;55.30
27266;DHT22;14766;51.380;13.762;2022-11-15T08:24:17;19.50;53.60
27266;DHT22;14766;51.380;13.762;2022-11-15T08:27:02;19.70;52.60
27266;DHT22;14766;51.380;13.762;2022-11-15T08:29:49;20.00;50.50
27266;DHT22;14766;51.380;13.762;2022-11-15T08:32:40;20.20;49.90
27266;DHT22;14766;51.380;13.762;2022-11-15T08:35:27;20.20;49.80
27266;DHT22;14766;51.380;13.762;2022-11-15T08:38:15;20.40;49.10
27266;DHT22;14766;51.380;13.762;2022-11-15T08:41:04;20.40;48.60
27266;DHT22;14766;51.380;13.762;2022-11-15T08:43:49;20.50;48.50
27266;DHT22;14766;51.380;13.762;2022-11-15T08:46:35;20.60;48.90
27266;DHT22;14766;51.380;13.762;2022-11-15T08:49:20;20.70;47.80
27266;DHT22;14766;51.380;13.762;2022-11-15T08:52:06;20.80;47.60
27266;DHT22;14766;51.380;13.762;2022-11-15T08:54:52;20.90;44.80
27266;DHT22;14766;51.380;13.762;2022-11-15T08:57:37;20.90;46.30
27266;DHT22;14766;51.380;13.762;2022-11-15T09:00:24;21.00;45.80
27266;DHT22;14766;51.380;13.762;2022-11-15T09:03:10;21.00;46.40
27266;DHT22;14766;51.380;13.762;2022-11-15T09:05:57;21.10;46.50
27266;DHT22;14766;51.380;13.762;2022-11-15T09:08:43;21.10;47.00
27266;DHT22;14766;51.380;13.762;2022-11-15T09:11:33;21.20;46.80
27266;DHT22;14766;51.380;13.762;2022-11-15T09:14:19;21.40;46.60
27266;DHT22;14766;51.380;13.762;2022-11-15T09:17:09;21.40;45.90
27266;DHT22;14766;51.380;13.762;2022-11-15T09:19:56;21.60;45.80
27266;DHT22;14766;51.380;13.762;2022-11-15T09:22:45;21.70;45.80
27266;DHT22;14766;51.380;13.762;2022-11-15T09:25:32;21.80;44.30
27266;DHT22;14766;51.380;13.762;2022-11-15T09:28:18;21.80;42.30
27266;DHT22;14766;51.380;13.762;2022-11-15T09:31:06;21.80;43.50
27266;DHT22;14766;51.380;13.762;2022-11-15T09:33:52;21.80;42.90
27266;DHT22;14766;51.380;13.762;2022-11-15T09:36:38;21.70;43.20
27266;DHT22;14766;51.380;13.762;2022-11-15T09:39:26;21.70;43.30
27266;DHT22;14766;51.380;13.762;2022-11-15T09:45:31;21.60;43.50
27266;DHT22;14766;51.380;13.762;2022-11-15T09:48:50;21.50;43.60
27266;DHT22;14766;51.380;13.762;2022-11-15T09:51:47;21.50;43.40
27266;DHT22;14766;51.380;13.762;2022-11-15T09:57:43;21.50;44.70
27266;DHT22;14766;51.380;13.762;2022-11-15T10:00:20;21.50;44.90
27266;DHT22;14766;51.380;13.762;2022-11-15T10:03:14;21.70;45.20
27266;DHT22;14766;51.380;13.762;2022-11-15T10:05:47;21.80;45.00
27266;DHT22;14766;51.380;13.762;2022-11-15T10:11:08;22.10;44.50
27266;DHT22;14766;51.380;13.762;2022-11-15T10:13:59;22.20;45.00
27266;DHT22;14766;51.380;13.762;2022-11-15T10:24:30;22.60;42.40
27266;DHT22;14766;51.380;13.762;2022-11-15T10:27:01;22.60;42.90
27266;DHT22;14766;51.380;13.762;2022-11-15T10:29:28;22.70;42.50
27266;DHT22;14766;51.380;13.762;2022-11-15T10:31:55;22.70;42.40
27266;DHT22;14766;51.380;13.762;2022-11-15T10:34:25;22.70;42.20
27266;DHT22;14766;51.380;13.762;2022-11-15T10:37:00;22.80;42.60
27266;DHT22;14766;51.380;13.762;2022-11-15T10:39:29;22.90;42.30
27266;DHT22;14766;51.380;13.762;2022-11-15T10:41:56;22.90;41.70
27266;DHT22;14766;51.380;13.762;2022-11-15T10:49:33;23.00;41.40
27266;DHT22;14766;51.380;13.762;2022-11-15T10:52:16;23.00;40.80
27266;DHT22;14766;51.380;13.762;2022-11-15T10:54:48;23.00;41.30
27266;DHT22;14766;51.380;13.762;2022-11-15T10:57:37;23.00;41.10
27266;DHT22;14766;51.380;13.762;2022-11-15T11:02:37;23.10;41.20
27266;DHT22;14766;51.380;13.762;2022-11-15T11:08:00;23.20;41.50
27266;DHT22;14766;51.380;13.762;2022-11-15T11:10:28;23.20;41.00
27266;DHT22;14766;51.380;13.762;2022-11-15T11:13:24;23.30;41.10
27266;DHT22;14766;51.380;13.762;2022-11-15T11:16:21;23.40;41.30
27266;DHT22;14766;51.380;13.762;2022-11-15T11:30:27;23.60;39.70
27266;DHT22;14766;51.380;13.762;2022-11-15T11:36:25;23.60;40.30
27266;DHT22;14766;51.380;13.762;2022-11-15T11:39:40;23.60;40.00
27266;DHT22;14766;51.380;13.762;2022-11-15T11:45:02;23.50;40.20
27266;DHT22;14766;51.380;13.762;2022-11-15T11:48:00;23.50;40.30
27266;DHT22;14766;51.380;13.762;2022-11-15T11:50:26;23.40;40.60
27266;DHT22;14766;51.380;13.762;2022-11-15T11:55:45;23.30;40.30
27266;DHT22;14766;51.380;13.762;2022-11-15T11:58:26;23.20;40.60
27266;DHT22;14766;51.380;13.762;2022-11-15T12:01:28;23.00;40.60
27266;DHT22;14766;51.380;13.762;2022-11-15T12:06:58;22.70;41.20
27266;DHT22;14766;51.380;13.762;2022-11-15T12:09:32;22.60;41.20
27266;DHT22;14766;51.380;13.762;2022-11-15T12:14:56;22.20;41.30
27266;DHT22;14766;51.380;13.762;2022-11-15T12:17:28;22.10;41.80
27266;DHT22;14766;51.380;13.762;2022-11-15T12:20:17;21.90;42.10
27266;DHT22;14766;51.380;13.762;2022-11-15T12:23:03;21.70;42.40
27266;DHT22;14766;51.380;13.762;2022-11-15T12:25:49;21.50;42.60
27266;DHT22;14766;51.380;13.762;2022-11-15T12:31:24;21.30;43.30
27266;DHT22;14766;51.380;13.762;2022-11-15T12:33:58;21.10;43.60
27266;DHT22;14766;51.380;13.762;2022-11-15T12:36:39;21.10;43.90
27266;DHT22;14766;51.380;13.762;2022-11-15T12:39:12;20.90;44.00
27266;DHT22;14766;51.380;13.762;2022-11-15T12:52:08;20.40;45.20
27266;DHT22;14766;51.380;13.762;2022-11-15T12:54:56;20.30;45.50
27266;DHT22;14766;51.380;13.762;2022-11-15T12:57:50;20.20;45.70
27266;DHT22;14766;51.380;13.762;2022-11-15T13:03:19;20.00;45.90
27266;DHT22;14766;51.380;13.762;2022-11-15T13:05:55;20.00;46.10
27266;DHT22;14766;51.380;13.762;2022-11-15T13:08:39;19.90;46.30
27266;DHT22;14766;51.380;13.762;2022-11-15T13:11:41;19.80;46.50
27266;DHT22;14766;51.380;13.762;2022-11-15T13:19:57;19.60;46.80
27266;DHT22;14766;51.380;13.762;2022-11-15T13:22:38;19.60;47.10
27266;DHT22;14766;51.380;13.762;2022-11-15T13:27:51;19.40;47.30
27266;DHT22;14766;51.380;13.762;2022-11-15T13:30:27;19.30;47.60
27266;DHT22;14766;51.380;13.762;2022-11-15T13:32:55;19.30;47.90
27266;DHT22;14766;51.380;13.762;2022-11-15T13:35:26;19.20;47.90
27266;DHT22;14766;51.380;13.762;2022-11-15T13:37:55;19.10;48.10
27266;DHT22;14766;51.380;13.762;2022-11-15T13:40:28;19.00;48.20
27266;DHT22;14766;51.380;13.762;2022-11-15T13:42:57;18.90;48.10
27266;DHT22;14766;51.380;13.762;2022-11-15T13:45:26;18.90;48.20
27266;DHT22;14766;51.380;13.762;2022-11-15T13:47:55;18.80;48.60
27266;DHT22;14766;51.380;13.762;2022-11-15T13:50:28;18.70;48.90
27266;DHT22;14766;51.380;13.762;2022-11-15T13:53:03;18.60;48.80
27266;DHT22;14766;51.380;13.762;2022-11-15T13:55:31;18.60;49.10
27266;DHT22;14766;51.380;13.762;2022-11-15T13:58:02;18.50;49.30
27266;DHT22;14766;51.380;13.762;2022-11-15T14:00:46;18.50;49.30
27266;DHT22;14766;51.380;13.762;2022-11-15T14:03:21;18.40;49.70
27266;DHT22;14766;51.380;13.762;2022-11-15T14:08:38;18.30;50.00
27266;DHT22;14766;51.380;13.762;2022-11-15T14:11:18;18.20;49.80
27266;DHT22;14766;51.380;13.762;2022-11-15T14:14:14;18.20;50.00
27266;DHT22;14766;51.380;13.762;2022-11-15T14:16:43;18.10;50.10
27266;DHT22;14766;51.380;13.762;2022-11-15T14:19:13;18.00;50.40
27266;DHT22;14766;51.380;13.762;2022-11-15T14:22:21;18.00;50.00
27266;DHT22;14766;51.380;13.762;2022-11-15T14:25:17;17.80;50.00
27266;DHT22;14766;51.380;13.762;2022-11-15T14:30:33;17.70;50.60
27266;DHT22;14766;51.380;13.762;2022-11-15T14:33:01;17.70;50.40
27266;DHT22;14766;51.380;13.762;2022-11-15T14:35:29;17.60;50.50
27266;DHT22;14766;51.380;13.762;2022-11-15T14:37:59;17.60;50.90
27266;DHT22;14766;51.380;13.762;2022-11-15T14:40:26;17.50;50.90
27266;DHT22;14766;51.380;13.762;2022-11-15T14:42:53;17.40;51.30
27266;DHT22;14766;51.380;13.762;2022-11-15T14:45:21;17.40;51.40
27266;DHT22;14766;51.380;13.762;2022-11-15T14:47:49;17.30;51.50
27266;DHT22;14766;51.380;13.762;2022-11-15T14:50:19;17.20;51.70
27266;DHT22;14766;51.380;13.762;2022-11-15T14:52:47;17.10;51.70
27266;DHT22;14766;51.380;13.762;2022-11-15T14:55:20;17.10;52.00
27266;DHT22;14766;51.380;13.762;2022-11-15T14:57:48;17.00;52.10
27266;DHT22;14766;51.380;13.762;2022-11-15T15:00:16;16.90;52.10
27266;DHT22;14766;51.380;13.762;2022-11-15T15:02:45;16.90;52.10
27266;DHT22;14766;51.380;13.762;2022-11-15T15:05:32;16.80;52.20
27266;DHT22;14766;51.380;13.762;2022-11-15T15:08:00;16.70;52.40
27266;DHT22;14766;51.380;13.762;2022-11-15T15:10:35;16.70;52.40
27266;DHT22;14766;51.380;13.762;2022-11-15T15:13:27;16.70;52.50
27266;DHT22;14766;51.380;13.762;2022-11-15T15:15:55;16.60;52.70
27266;DHT22;14766;51.380;13.762;2022-11-15T15:18:22;16.50;52.30
27266;DHT22;14766;51.380;13.762;2022-11-15T15:20:57;16.50;52.70
27266;DHT22;14766;51.380;13.762;2022-11-15T15:23:52;16.50;52.80
27266;DHT22;14766;51.380;13.762;2022-11-15T15:26:27;16.40;52.80
27266;DHT22;14766;51.380;13.762;2022-11-15T15:28:54;16.40;52.90
27266;DHT22;14766;51.380;13.762;2022-11-15T15:31:25;16.30;52.70
27266;DHT22;14766;51.380;13.762;2022-11-15T15:33:52;16.20;52.70
27266;DHT22;14766;51.380;13.762;2022-11-15T15:36:21;16.20;52.90
27266;DHT22;14766;51.380;13.762;2022-11-15T15:38:49;16.10;53.10
27266;DHT22;14766;51.380;13.762;2022-11-15T15:41:16;16.00;53.20
27266;DHT22;14766;51.380;13.762;2022-11-15T15:43:44;15.90;53.40
27266;DHT22;14766;51.380;13.762;2022-11-15T15:46:16;15.90;53.70
27266;DHT22;14766;51.380;13.762;2022-11-15T15:48:44;15.80;53.70
27266;DHT22;14766;51.380;13.762;2022-11-15T15:51:12;15.70;53.70
27266;DHT22;14766;51.380;13.762;2022-11-15T15:53:46;15.60;53.90
27266;DHT22;14766;51.380;13.762;2022-11-15T15:56:14;15.60;53.90
27266;DHT22;14766;51.380;13.762;2022-11-15T15:58:41;15.50;54.10
27266;DHT22;14766;51.380;13.762;2022-11-15T16:01:08;15.40;54.00
27266;DHT22;14766;51.380;13.762;2022-11-15T16:03:35;15.30;54.20
27266;DHT22;14766;51.380;13.762;2022-11-15T16:06:02;15.30;54.30
27266;DHT22;14766;51.380;13.762;2022-11-15T16:08:31;15.20;54.40
27266;DHT22;14766;51.380;13.762;2022-11-15T16:11:13;15.20;54.50
27266;DHT22;14766;51.380;13.762;2022-11-15T16:13:40;15.10;54.40
27266;DHT22;14766;51.380;13.762;2022-11-15T16:16:09;15.00;54.40
27266;DHT22;14766;51.380;13.762;2022-11-15T16:18:39;15.00;54.30
27266;DHT22;14766;51.380;13.762;2022-11-15T16:21:07;14.90;54.40
27266;DHT22;14766;51.380;13.762;2022-11-15T16:23:35;14.80;54.50
27266;DHT22;14766;51.380;13.762;2022-11-15T16:26:04;14.80;54.60
27266;DHT22;14766;51.380;13.762;2022-11-15T16:28:42;14.80;54.50
27266;DHT22;14766;51.380;13.762;2022-11-15T16:31:10;14.70;54.60
27266;DHT22;14766;51.380;13.762;2022-11-15T16:33:39;14.70;54.60
27266;DHT22;14766;51.380;13.762;2022-11-15T16:36:25;14.60;54.80
27266;DHT22;14766;51.380;13.762;2022-11-15T16:38:58;14.50;54.90
27266;DHT22;14766;51.380;13.762;2022-11-15T16:41:26;14.40;54.90
27266;DHT22;14766;51.380;13.762;2022-11-15T16:43:53;14.40;55.00
27266;DHT22;14766;51.380;13.762;2022-11-15T16:46:25;14.30;55.10
27266;DHT22;14766;51.380;13.762;2022-11-15T16:48:53;14.20;55.90
27266;DHT22;14766;51.380;13.762;2022-11-15T16:51:21;14.10;55.30
27266;DHT22;14766;51.380;13.762;2022-11-15T16:53:49;14.00;55.50
27266;DHT22;14766;51.380;13.762;2022-11-15T16:56:26;13.90;55.50
27266;DHT22;14766;51.380;13.762;2022-11-15T16:58:54;13.80;55.90
27266;DHT22;14766;51.380;13.762;2022-11-15T17:01:27;13.80;56.10
27266;DHT22;14766;51.380;13.762;2022-11-15T17:03:55;13.70;56.20
27266;DHT22;14766;51.380;13.762;2022-11-15T17:06:24;13.60;56.20
27266;DHT22;14766;51.380;13.762;2022-11-15T17:08:53;13.50;56.40
27266;DHT22;14766;51.380;13.762;2022-11-15T17:11:21;13.50;56.60
27266;DHT22;14766;51.380;13.762;2022-11-15T17:13:50;13.40;56.80
27266;DHT22;14766;51.380;13.762;2022-11-15T17:16:17;13.30;57.00
27266;DHT22;14766;51.380;13.762;2022-11-15T17:18:50;13.30;56.90
27266;DHT22;14766;51.380;13.762;2022-11-15T17:21:19;13.20;57.00
27266;DHT22;14766;51.380;13.762;2022-11-15T17:23:48;13.20;57.20
27266;DHT22;14766;51.380;13.762;2022-11-15T17:26:15;13.10;57.20
27266;DHT22;14766;51.380;13.762;2022-11-15T17:28:56;13.10;57.30
27266;DHT22;14766;51.380;13.762;2022-11-15T17:31:25;13.00;57.60
27266;DHT22;14766;51.380;13.762;2022-11-15T17:33:52;13.00;57.60
27266;DHT22;14766;51.380;13.762;2022-11-15T17:36:20;12.90;58.00
27266;DHT22;14766;51.380;13.762;2022-11-15T17:38:48;12.80;58.10
27266;DHT22;14766;51.380;13.762;2022-11-15T17:41:24;12.80;58.10
27266;DHT22;14766;51.380;13.762;2022-11-15T17:43:51;12.70;58.20
27266;DHT22;14766;51.380;13.762;2022-11-15T17:46:20;12.60;58.60
27266;DHT22;14766;51.380;13.762;2022-11-15T17:48:47;12.60;58.70
27266;DHT22;14766;51.380;13.762;2022-11-15T17:51:16;12.50;58.80
27266;DHT22;14766;51.380;13.762;2022-11-15T17:53:45;12.50;58.90
27266;DHT22;14766;51.380;13.762;2022-11-15T17:56:14;12.40;58.90
27266;DHT22;14766;51.380;13.762;2022-11-15T17:58:51;12.40;59.00
27266;DHT22;14766;51.380;13.762;2022-11-15T18:01:23;12.40;58.90
27266;DHT22;14766;51.380;13.762;2022-11-15T18:03:52;12.40;59.00
27266;DHT22;14766;51.380;13.762;2022-11-15T18:06:20;12.40;59.00
27266;DHT22;14766;51.380;13.762;2022-11-15T18:08:49;12.40;59.10
27266;DHT22;14766;51.380;13.762;2022-11-15T18:11:31;12.40;59.20
27266;DHT22;14766;51.380;13.762;2022-11-15T18:14:03;12.30;59.20
27266;DHT22;14766;51.380;13.762;2022-11-15T18:16:33;12.30;59.00
27266;DHT22;14766;51.380;13.762;2022-11-15T18:19:01;12.30;59.10
27266;DHT22;14766;51.380;13.762;2022-11-15T18:21:34;12.30;58.90
27266;DHT22;14766;51.380;13.762;2022-11-15T18:24:26;12.30;58.80
27266;DHT22;14766;51.380;13.762;2022-11-15T18:26:54;12.30;58.90
27266;DHT22;14766;51.380;13.762;2022-11-15T18:29:21;12.30;58.80
27266;DHT22;14766;51.380;13.762;2022-11-15T18:31:51;12.30;58.70
27266;DHT22;14766;51.380;13.762;2022-11-15T18:34:23;12.30;58.90